sensor_id;sensor_type;location;lat;lon;timestamp;pressure;altitude;pressure_sealevel;temperature;humidity
74615;BME280;63121;51.458;-0.110;2023-03-19T00:01:42;100837.53;;;13.01;64.87
74615;BME280;63121;51.458;-0.110;2023-03-19T00:04:07;100841.41;;;12.78;65.66
74615;BME280;63121;51.458;-0.110;2023-03-19T00:06:33;100840.88;;;13.06;64.32
74615;BME280;63121;51.458;-0.110;2023-03-19T00:08:58;100852.06;;;12.60;66.12
74615;BME280;63121;51.458;-0.110;2023-03-19T00:11:24;100857.75;;;12.82;65.45
74615;BME280;63121;51.458;-0.110;2023-03-19T00:13:49;100853.03;;;13.02;64.24
74615;BME280;63121;51.458;-0.110;2023-03-19T00:16:15;100852.97;;;13.07;64.49
74615;BME280;63121;51.458;-0.110;2023-03-19T00:18:40;100866.16;;;12.95;65.17
74615;BME280;63121;51.458;-0.110;2023-03-19T00:21:06;100856.84;;;12.85;65.03
74615;BME280;63121;51.458;-0.110;2023-03-19T00:23:31;100868.84;;;12.89;65.00
74615;BME280;63121;51.458;-0.110;2023-03-19T00:25:57;100868.38;;;13.13;64.69
74615;BME280;63121;51.458;-0.110;2023-03-19T00:28:22;100862.50;;;13.05;64.65
74615;BME280;63121;51.458;-0.110;2023-03-19T00:30:47;100858.66;;;13.26;63.79
74615;BME280;63121;51.458;-0.110;2023-03-19T00:33:13;100859.44;;;13.30;63.53
74615;BME280;63121;51.458;-0.110;2023-03-19T00:35:38;100875.50;;;13.02;64.75
74615;BME280;63121;51.458;-0.110;2023-03-19T00:38:04;100881.66;;;12.96;64.96
74615;BME280;63121;51.458;-0.110;2023-03-19T00:40:30;100885.66;;;12.65;65.54
74615;BME280;63121;51.458;-0.110;2023-03-19T00:42:56;100886.38;;;12.73;65.92
74615;BME280;63121;51.458;-0.110;2023-03-19T00:45:21;100884.88;;;13.09;64.66
74615;BME280;63121;51.458;-0.110;2023-03-19T00:47:47;100880.88;;;12.93;65.20
74615;BME280;63121;51.458;-0.110;2023-03-19T00:50:12;100884.41;;;12.89;65.01
74615;BME280;63121;51.458;-0.110;2023-03-19T00:52:37;100888.63;;;12.93;65.35
74615;BME280;63121;51.458;-0.110;2023-03-19T00:55:03;100886.25;;;12.80;65.35
74615;BME280;63121;51.458;-0.110;2023-03-19T00:57:29;100896.94;;;13.12;64.78
74615;BME280;63121;51.458;-0.110;2023-03-19T00:59:54;100901.16;;;12.69;65.78
74615;BME280;63121;51.458;-0.110;2023-03-19T01:02:20;100901.88;;;12.76;65.71
74615;BME280;63121;51.458;-0.110;2023-03-19T01:04:47;100905.16;;;12.86;65.59
74615;BME280;63121;51.458;-0.110;2023-03-19T01:07:13;100906.06;;;12.83;65.73
74615;BME280;63121;51.458;-0.110;2023-03-19T01:09:38;100905.13;;;12.89;65.90
74615;BME280;63121;51.458;-0.110;2023-03-19T01:12:06;100899.03;;;13.39;63.92
74615;BME280;63121;51.458;-0.110;2023-03-19T01:14:31;100897.91;;;13.05;65.16
74615;BME280;63121;51.458;-0.110;2023-03-19T01:16:57;100896.53;;;12.85;66.18
74615;BME280;63121;51.458;-0.110;2023-03-19T01:19:22;100921.06;;;12.64;67.19
74615;BME280;63121;51.458;-0.110;2023-03-19T01:21:48;100918.56;;;12.59;69.48
74615;BME280;63121;51.458;-0.110;2023-03-19T01:24:14;100921.69;;;12.24;70.43
74615;BME280;63121;51.458;-0.110;2023-03-19T01:26:40;100923.00;;;11.91;72.11
74615;BME280;63121;51.458;-0.110;2023-03-19T01:29:06;100923.16;;;12.42;71.15
74615;BME280;63121;51.458;-0.110;2023-03-19T01:31:32;100935.34;;;12.35;70.89
74615;BME280;63121;51.458;-0.110;2023-03-19T01:33:57;100936.47;;;12.16;71.55
74615;BME280;63121;51.458;-0.110;2023-03-19T01:36:22;100945.63;;;11.72;73.32
74615;BME280;63121;51.458;-0.110;2023-03-19T01:38:48;100947.25;;;11.00;74.53
74615;BME280;63121;51.458;-0.110;2023-03-19T01:41:14;100955.03;;;10.98;73.89
74615;BME280;63121;51.458;-0.110;2023-03-19T01:43:40;100957.69;;;10.88;74.94
74615;BME280;63121;51.458;-0.110;2023-03-19T01:46:28;100967.13;;;10.95;75.08
74615;BME280;63121;51.458;-0.110;2023-03-19T01:49:04;100974.16;;;10.77;73.72
74615;BME280;63121;51.458;-0.110;2023-03-19T01:51:35;100973.53;;;11.44;71.39
74615;BME280;63121;51.458;-0.110;2023-03-19T01:54:05;100966.44;;;10.71;73.30
74615;BME280;63121;51.458;-0.110;2023-03-19T01:56:33;100977.03;;;11.39;71.82
74615;BME280;63121;51.458;-0.110;2023-03-19T01:59:29;100998.25;;;10.78;72.92
74615;BME280;63121;51.458;-0.110;2023-03-19T02:02:00;101001.94;;;10.42;74.06
74615;BME280;63121;51.458;-0.110;2023-03-19T02:04:28;100995.66;;;10.80;72.99
74615;BME280;63121;51.458;-0.110;2023-03-19T02:06:56;101006.97;;;10.60;73.85
74615;BME280;63121;51.458;-0.110;2023-03-19T02:09:23;101000.31;;;10.11;75.83
74615;BME280;63121;51.458;-0.110;2023-03-19T02:11:49;101006.28;;;10.30;74.86
74615;BME280;63121;51.458;-0.110;2023-03-19T02:14:15;101012.13;;;10.65;74.41
74615;BME280;63121;51.458;-0.110;2023-03-19T02:16:41;101011.53;;;10.12;75.02
74615;BME280;63121;51.458;-0.110;2023-03-19T02:19:08;101001.13;;;10.33;74.58
74615;BME280;63121;51.458;-0.110;2023-03-19T02:21:37;101005.09;;;10.82;73.25
74615;BME280;63121;51.458;-0.110;2023-03-19T02:24:09;101003.22;;;10.99;71.85
74615;BME280;63121;51.458;-0.110;2023-03-19T02:26:37;101002.84;;;10.22;73.26
74615;BME280;63121;51.458;-0.110;2023-03-19T02:29:03;101004.47;;;10.46;71.92
74615;BME280;63121;51.458;-0.110;2023-03-19T02:31:28;101005.41;;;10.37;70.88
74615;BME280;63121;51.458;-0.110;2023-03-19T02:36:22;101008.81;;;10.38;70.90
74615;BME280;63121;51.458;-0.110;2023-03-19T02:38:48;101012.81;;;10.87;70.15
74615;BME280;63121;51.458;-0.110;2023-03-19T02:41:14;101006.88;;;10.75;70.34
74615;BME280;63121;51.458;-0.110;2023-03-19T02:43:40;101007.81;;;10.65;70.96
74615;BME280;63121;51.458;-0.110;2023-03-19T02:46:09;101010.84;;;11.18;69.75
74615;BME280;63121;51.458;-0.110;2023-03-19T02:48:36;101015.78;;;11.43;68.98
74615;BME280;63121;51.458;-0.110;2023-03-19T02:51:02;101024.78;;;10.95;69.22
74615;BME280;63121;51.458;-0.110;2023-03-19T02:53:28;101025.19;;;10.35;70.93
74615;BME280;63121;51.458;-0.110;2023-03-19T02:55:53;101021.56;;;10.67;70.86
74615;BME280;63121;51.458;-0.110;2023-03-19T02:58:19;101035.13;;;10.95;69.05
74615;BME280;63121;51.458;-0.110;2023-03-19T03:00:45;101028.19;;;11.04;68.92
74615;BME280;63121;51.458;-0.110;2023-03-19T03:03:10;101034.41;;;10.75;69.19
74615;BME280;63121;51.458;-0.110;2023-03-19T03:05:36;101022.19;;;10.98;68.84
74615;BME280;63121;51.458;-0.110;2023-03-19T03:08:02;101032.16;;;11.40;67.44
74615;BME280;63121;51.458;-0.110;2023-03-19T03:10:28;101034.84;;;11.29;68.46
74615;BME280;63121;51.458;-0.110;2023-03-19T03:12:53;101030.97;;;10.73;68.54
74615;BME280;63121;51.458;-0.110;2023-03-19T03:15:19;101028.25;;;10.90;68.34
74615;BME280;63121;51.458;-0.110;2023-03-19T03:17:45;101037.41;;;11.31;67.81
74615;BME280;63121;51.458;-0.110;2023-03-19T03:20:13;101031.00;;;10.71;68.92
74615;BME280;63121;51.458;-0.110;2023-03-19T03:22:40;101032.59;;;10.89;67.90
74615;BME280;63121;51.458;-0.110;2023-03-19T03:25:06;101037.78;;;10.86;67.67
74615;BME280;63121;51.458;-0.110;2023-03-19T03:27:32;101042.69;;;11.22;67.95
74615;BME280;63121;51.458;-0.110;2023-03-19T03:29:57;101040.84;;;11.33;67.29
74615;BME280;63121;51.458;-0.110;2023-03-19T03:32:23;101043.59;;;11.13;67.67
74615;BME280;63121;51.458;-0.110;2023-03-19T03:34:49;101049.50;;;11.27;66.65
74615;BME280;63121;51.458;-0.110;2023-03-19T03:37:15;101048.66;;;11.25;66.50
74615;BME280;63121;51.458;-0.110;2023-03-19T03:39:41;101054.53;;;11.44;66.29
74615;BME280;63121;51.458;-0.110;2023-03-19T03:42:07;101056.00;;;10.65;68.69
74615;BME280;63121;51.458;-0.110;2023-03-19T03:44:33;101064.34;;;11.05;67.22
74615;BME280;63121;51.458;-0.110;2023-03-19T03:46:58;101056.75;;;10.82;67.91
74615;BME280;63121;51.458;-0.110;2023-03-19T03:49:23;101057.78;;;10.56;67.66
74615;BME280;63121;51.458;-0.110;2023-03-19T03:51:49;101059.88;;;11.23;66.95
74615;BME280;63121;51.458;-0.110;2023-03-19T03:54:15;101057.47;;;10.98;67.98
74615;BME280;63121;51.458;-0.110;2023-03-19T03:56:40;101064.34;;;11.04;67.18
74615;BME280;63121;51.458;-0.110;2023-03-19T03:59:06;101058.47;;;10.82;68.38
74615;BME280;63121;51.458;-0.110;2023-03-19T04:01:32;101061.72;;;11.08;68.14
74615;BME280;63121;51.458;-0.110;2023-03-19T04:03:58;101065.34;;;10.84;68.31
74615;BME280;63121;51.458;-0.110;2023-03-19T04:06:24;101069.63;;;10.88;68.49
74615;BME280;63121;51.458;-0.110;2023-03-19T04:08:51;101068.75;;;10.91;67.73
74615;BME280;63121;51.458;-0.110;2023-03-19T04:11:16;101080.94;;;10.64;67.78
74615;BME280;63121;51.458;-0.110;2023-03-19T04:13:42;101080.03;;;10.74;67.35
74615;BME280;63121;51.458;-0.110;2023-03-19T04:16:09;101087.78;;;10.77;68.43
74615;BME280;63121;51.458;-0.110;2023-03-19T04:18:35;101097.91;;;11.02;67.38
74615;BME280;63121;51.458;-0.110;2023-03-19T04:21:02;101100.78;;;10.59;67.78
74615;BME280;63121;51.458;-0.110;2023-03-19T04:23:28;101109.31;;;10.70;68.64
74615;BME280;63121;51.458;-0.110;2023-03-19T04:25:58;101108.38;;;10.88;67.87
74615;BME280;63121;51.458;-0.110;2023-03-19T04:28:24;101099.03;;;10.58;68.24
74615;BME280;63121;51.458;-0.110;2023-03-19T04:30:50;101099.81;;;10.78;68.63
74615;BME280;63121;51.458;-0.110;2023-03-19T04:33:15;101114.59;;;10.50;68.10
74615;BME280;63121;51.458;-0.110;2023-03-19T04:35:41;101118.00;;;10.58;68.11
74615;BME280;63121;51.458;-0.110;2023-03-19T04:38:07;101125.78;;;10.46;68.85
74615;BME280;63121;51.458;-0.110;2023-03-19T04:40:33;101125.81;;;10.37;69.36
74615;BME280;63121;51.458;-0.110;2023-03-19T04:42:58;101129.25;;;10.39;69.22
74615;BME280;63121;51.458;-0.110;2023-03-19T04:45:24;101133.59;;;10.29;69.80
74615;BME280;63121;51.458;-0.110;2023-03-19T04:47:49;101145.50;;;10.67;68.77
74615;BME280;63121;51.458;-0.110;2023-03-19T04:50:15;101144.75;;;10.30;68.01
74615;BME280;63121;51.458;-0.110;2023-03-19T04:52:41;101151.66;;;10.17;68.20
74615;BME280;63121;51.458;-0.110;2023-03-19T04:55:07;101160.22;;;10.36;68.38
74615;BME280;63121;51.458;-0.110;2023-03-19T04:57:32;101158.56;;;9.84;68.76
74615;BME280;63121;51.458;-0.110;2023-03-19T04:59:58;101156.00;;;9.92;67.72
74615;BME280;63121;51.458;-0.110;2023-03-19T05:02:24;101160.28;;;9.44;67.65
74615;BME280;63121;51.458;-0.110;2023-03-19T05:04:50;101162.00;;;9.46;67.78
74615;BME280;63121;51.458;-0.110;2023-03-19T05:07:16;101172.34;;;9.77;66.28
74615;BME280;63121;51.458;-0.110;2023-03-19T05:09:41;101169.75;;;9.46;66.57
74615;BME280;63121;51.458;-0.110;2023-03-19T05:12:09;101171.47;;;9.69;66.18
74615;BME280;63121;51.458;-0.110;2023-03-19T05:14:34;101186.06;;;9.82;65.15
74615;BME280;63121;51.458;-0.110;2023-03-19T05:17:00;101180.91;;;9.38;66.22
74615;BME280;63121;51.458;-0.110;2023-03-19T05:19:25;101186.03;;;9.31;66.20
74615;BME280;63121;51.458;-0.110;2023-03-19T05:21:50;101185.22;;;9.49;65.51
74615;BME280;63121;51.458;-0.110;2023-03-19T05:24:16;101180.00;;;9.14;65.87
74615;BME280;63121;51.458;-0.110;2023-03-19T05:26:41;101188.66;;;9.36;66.35
74615;BME280;63121;51.458;-0.110;2023-03-19T05:29:07;101191.22;;;9.77;64.62
74615;BME280;63121;51.458;-0.110;2023-03-19T05:31:36;101197.25;;;9.87;64.19
74615;BME280;63121;51.458;-0.110;2023-03-19T05:34:02;101198.94;;;9.39;65.94
74615;BME280;63121;51.458;-0.110;2023-03-19T05:36:27;101193.75;;;9.18;66.62
74615;BME280;63121;51.458;-0.110;2023-03-19T05:38:53;101199.84;;;9.55;65.01
74615;BME280;63121;51.458;-0.110;2023-03-19T05:41:18;101203.25;;;9.34;65.79
74615;BME280;63121;51.458;-0.110;2023-03-19T05:43:43;101204.97;;;9.52;65.68
74615;BME280;63121;51.458;-0.110;2023-03-19T05:46:09;101208.41;;;9.63;65.70
74615;BME280;63121;51.458;-0.110;2023-03-19T05:48:34;101215.28;;;9.73;65.10
74615;BME280;63121;51.458;-0.110;2023-03-19T05:50:59;101223.03;;;9.64;65.07
74615;BME280;63121;51.458;-0.110;2023-03-19T05:53:25;101221.28;;;9.63;65.05
74615;BME280;63121;51.458;-0.110;2023-03-19T05:55:51;101226.47;;;9.65;64.67
74615;BME280;63121;51.458;-0.110;2023-03-19T05:58:16;101238.53;;;9.87;64.87
74615;BME280;63121;51.458;-0.110;2023-03-19T06:00:42;101226.41;;;9.40;64.92
74615;BME280;63121;51.458;-0.110;2023-03-19T06:03:07;101226.47;;;9.65;64.89
74615;BME280;63121;51.458;-0.110;2023-03-19T06:05:33;101236.78;;;9.55;65.48
74615;BME280;63121;51.458;-0.110;2023-03-19T06:07:58;101237.63;;;9.47;65.94
74615;BME280;63121;51.458;-0.110;2023-03-19T06:10:24;101237.59;;;9.36;65.75
74615;BME280;63121;51.458;-0.110;2023-03-19T06:12:49;101241.91;;;9.45;66.12
74615;BME280;63121;51.458;-0.110;2023-03-19T06:15:15;101243.63;;;9.50;65.76
74615;BME280;63121;51.458;-0.110;2023-03-19T06:17:41;101248.75;;;9.35;65.61
74615;BME280;63121;51.458;-0.110;2023-03-19T06:20:09;101253.06;;;9.44;65.56
74615;BME280;63121;51.458;-0.110;2023-03-19T06:22:35;101254.81;;;9.60;65.23
74615;BME280;63121;51.458;-0.110;2023-03-19T06:25:01;101260.84;;;9.90;63.62
74615;BME280;63121;51.458;-0.110;2023-03-19T06:27:26;101255.72;;;9.91;64.39
74615;BME280;63121;51.458;-0.110;2023-03-19T06:29:52;101260.00;;;10.02;64.56
74615;BME280;63121;51.458;-0.110;2023-03-19T06:32:17;101272.88;;;9.65;64.79
74615;BME280;63121;51.458;-0.110;2023-03-19T06:34:43;101276.31;;;9.77;64.94
74615;BME280;63121;51.458;-0.110;2023-03-19T06:37:08;101280.56;;;9.54;65.77
74615;BME280;63121;51.458;-0.110;2023-03-19T06:39:33;101279.75;;;9.78;64.60
74615;BME280;63121;51.458;-0.110;2023-03-19T06:41:59;101290.09;;;10.16;63.66
74615;BME280;63121;51.458;-0.110;2023-03-19T06:44:24;101294.41;;;10.21;63.63
74615;BME280;63121;51.458;-0.110;2023-03-19T06:46:50;101294.41;;;10.04;63.97
74615;BME280;63121;51.458;-0.110;2023-03-19T06:49:15;101290.94;;;10.15;63.93
74615;BME280;63121;51.458;-0.110;2023-03-19T06:51:41;101298.69;;;10.02;63.57
74615;BME280;63121;51.458;-0.110;2023-03-19T06:54:06;101303.00;;;10.09;63.73
74615;BME280;63121;51.458;-0.110;2023-03-19T06:56:32;101308.16;;;10.06;63.13
74615;BME280;63121;51.458;-0.110;2023-03-19T06:58:57;101319.31;;;9.92;63.37
74615;BME280;63121;51.458;-0.110;2023-03-19T07:01:23;101314.09;;;9.51;64.73
74615;BME280;63121;51.458;-0.110;2023-03-19T07:03:49;101316.66;;;9.57;64.30
74615;BME280;63121;51.458;-0.110;2023-03-19T07:06:15;101318.38;;;9.56;63.96
74615;BME280;63121;51.458;-0.110;2023-03-19T07:08:40;101325.25;;;9.47;64.90
74615;BME280;63121;51.458;-0.110;2023-03-19T07:11:11;101324.41;;;9.65;64.21
74615;BME280;63121;51.458;-0.110;2023-03-19T07:13:36;101324.44;;;9.68;64.17
74615;BME280;63121;51.458;-0.110;2023-03-19T07:16:02;101338.97;;;9.46;64.79
74615;BME280;63121;51.458;-0.110;2023-03-19T07:18:28;101326.19;;;10.01;63.65
74615;BME280;63121;51.458;-0.110;2023-03-19T07:20:54;101345.97;;;10.22;62.29
74615;BME280;63121;51.458;-0.110;2023-03-19T07:23:19;101351.09;;;9.82;62.93
74615;BME280;63121;51.458;-0.110;2023-03-19T07:25:44;101346.84;;;9.93;62.87
74615;BME280;63121;51.458;-0.110;2023-03-19T07:28:12;101352.84;;;9.94;62.96
74615;BME280;63121;51.458;-0.110;2023-03-19T07:30:37;101352.00;;;10.09;62.67
74615;BME280;63121;51.458;-0.110;2023-03-19T07:33:04;101356.22;;;9.73;62.69
74615;BME280;63121;51.458;-0.110;2023-03-19T07:35:31;101355.50;;;10.35;61.60
74615;BME280;63121;51.458;-0.110;2023-03-19T07:37:57;101362.38;;;10.38;61.60
74615;BME280;63121;51.458;-0.110;2023-03-19T07:40:23;101365.75;;;10.03;61.21
74615;BME280;63121;51.458;-0.110;2023-03-19T07:42:49;101378.63;;;9.98;61.82
74615;BME280;63121;51.458;-0.110;2023-03-19T07:45:15;101381.25;;;10.02;61.66
74615;BME280;63121;51.458;-0.110;2023-03-19T07:47:40;101387.25;;;10.16;61.10
74615;BME280;63121;51.458;-0.110;2023-03-19T07:50:06;101394.16;;;10.12;60.98
74615;BME280;63121;51.458;-0.110;2023-03-19T07:52:32;101387.31;;;10.64;59.40
74615;BME280;63121;51.458;-0.110;2023-03-19T07:54:57;101396.72;;;10.02;61.38
74615;BME280;63121;51.458;-0.110;2023-03-19T07:57:22;101392.44;;;10.08;60.46
74615;BME280;63121;51.458;-0.110;2023-03-19T07:59:50;101391.53;;;9.98;61.39
74615;BME280;63121;51.458;-0.110;2023-03-19T08:02:15;101391.53;;;9.89;61.04
74615;BME280;63121;51.458;-0.110;2023-03-19T08:04:41;101399.31;;;10.20;60.49
74615;BME280;63121;51.458;-0.110;2023-03-19T08:07:06;101384.75;;;10.48;59.29
74615;BME280;63121;51.458;-0.110;2023-03-19T08:09:34;101386.41;;;10.26;60.40
74615;BME280;63121;51.458;-0.110;2023-03-19T08:12:00;101389.00;;;10.17;60.37
74615;BME280;63121;51.458;-0.110;2023-03-19T08:14:25;101395.06;;;10.62;59.38
74615;BME280;63121;51.458;-0.110;2023-03-19T08:16:51;101405.38;;;10.57;59.63
74615;BME280;63121;51.458;-0.110;2023-03-19T08:19:16;101414.78;;;11.23;58.04
74615;BME280;63121;51.458;-0.110;2023-03-19T08:21:42;101410.56;;;10.74;59.08
74615;BME280;63121;51.458;-0.110;2023-03-19T08:24:08;101413.16;;;10.67;58.29
74615;BME280;63121;51.458;-0.110;2023-03-19T08:26:33;101417.44;;;10.75;58.04
74615;BME280;63121;51.458;-0.110;2023-03-19T08:28:59;101418.25;;;10.28;59.09
74615;BME280;63121;51.458;-0.110;2023-03-19T08:31:25;101420.03;;;10.57;58.06
74615;BME280;63121;51.458;-0.110;2023-03-19T08:33:51;101426.91;;;10.76;57.94
74615;BME280;63121;51.458;-0.110;2023-03-19T08:36:16;101425.19;;;10.57;58.08
74615;BME280;63121;51.458;-0.110;2023-03-19T08:38:41;101428.63;;;10.87;57.69
74615;BME280;63121;51.458;-0.110;2023-03-19T08:41:08;101424.25;;;11.23;56.96
74615;BME280;63121;51.458;-0.110;2023-03-19T08:43:35;101428.59;;;10.97;56.81
74615;BME280;63121;51.458;-0.110;2023-03-19T08:46:01;101433.78;;;10.73;57.55
74615;BME280;63121;51.458;-0.110;2023-03-19T08:48:27;101441.47;;;11.30;56.73
74615;BME280;63121;51.458;-0.110;2023-03-19T08:50:54;101443.25;;;10.88;57.22
74615;BME280;63121;51.458;-0.110;2023-03-19T08:53:20;101440.69;;;10.75;57.83
74615;BME280;63121;51.458;-0.110;2023-03-19T08:55:53;101445.84;;;10.92;56.98
74615;BME280;63121;51.458;-0.110;2023-03-19T08:58:19;101455.31;;;11.03;56.87
74615;BME280;63121;51.458;-0.110;2023-03-19T09:00:45;101454.44;;;10.90;56.95
74615;BME280;63121;51.458;-0.110;2023-03-19T09:03:11;101466.47;;;11.20;56.60
74615;BME280;63121;51.458;-0.110;2023-03-19T09:05:36;101463.94;;;10.82;56.67
74615;BME280;63121;51.458;-0.110;2023-03-19T09:08:01;101468.16;;;11.26;56.12
74615;BME280;63121;51.458;-0.110;2023-03-19T09:10:27;101470.78;;;11.30;55.91
74615;BME280;63121;51.458;-0.110;2023-03-19T09:12:52;101475.84;;;11.64;55.97
74615;BME280;63121;51.458;-0.110;2023-03-19T09:15:18;101475.91;;;11.47;54.97
74615;BME280;63121;51.458;-0.110;2023-03-19T09:17:44;101474.91;;;11.94;54.47
74615;BME280;63121;51.458;-0.110;2023-03-19T09:20:10;101472.06;;;12.40;53.08
74615;BME280;63121;51.458;-0.110;2023-03-19T09:22:35;101473.25;;;11.69;53.80
74615;BME280;63121;51.458;-0.110;2023-03-19T09:25:01;101476.63;;;11.91;53.64
74615;BME280;63121;51.458;-0.110;2023-03-19T09:27:26;101470.31;;;12.43;52.39
74615;BME280;63121;51.458;-0.110;2023-03-19T09:29:53;101482.47;;;12.30;52.33
74615;BME280;63121;51.458;-0.110;2023-03-19T09:32:18;101476.00;;;12.92;51.65
74615;BME280;63121;51.458;-0.110;2023-03-19T09:34:44;101486.84;;;12.22;52.29
74615;BME280;63121;51.458;-0.110;2023-03-19T09:37:10;101482.28;;;12.57;51.68
74615;BME280;63121;51.458;-0.110;2023-03-19T09:39:36;101478.44;;;13.06;51.19
74615;BME280;63121;51.458;-0.110;2023-03-19T09:44:38;101480.59;;;12.55;51.28
74615;BME280;63121;51.458;-0.110;2023-03-19T09:49:45;101494.19;;;12.86;51.43
74615;BME280;63121;51.458;-0.110;2023-03-19T09:52:41;101491.03;;;12.39;51.97
74615;BME280;63121;51.458;-0.110;2023-03-19T09:55:27;101497.84;;;12.59;51.69
74615;BME280;63121;51.458;-0.110;2023-03-19T09:57:56;101499.75;;;13.40;50.00
74615;BME280;63121;51.458;-0.110;2023-03-19T10:00:29;101503.56;;;12.96;49.97
74615;BME280;63121;51.458;-0.110;2023-03-19T10:09:08;101508.84;;;12.86;50.15
74615;BME280;63121;51.458;-0.110;2023-03-19T10:14:34;101501.06;;;12.87;49.79
74615;BME280;63121;51.458;-0.110;2023-03-19T10:17:06;101513.09;;;13.84;48.84
74615;BME280;63121;51.458;-0.110;2023-03-19T10:19:46;101513.50;;;14.23;46.85
74615;BME280;63121;51.458;-0.110;2023-03-19T10:22:15;101512.88;;;14.04;46.60
74615;BME280;63121;51.458;-0.110;2023-03-19T10:24:45;101516.13;;;13.44;48.81
74615;BME280;63121;51.458;-0.110;2023-03-19T10:27:20;101519.03;;;13.95;47.28
74615;BME280;63121;51.458;-0.110;2023-03-19T10:29:50;101526.34;;;13.61;47.27
74615;BME280;63121;51.458;-0.110;2023-03-19T10:34:49;101529.22;;;14.11;46.18
74615;BME280;63121;51.458;-0.110;2023-03-19T10:37:27;101519.31;;;14.40;45.70
74615;BME280;63121;51.458;-0.110;2023-03-19T10:39:59;101522.00;;;14.34;45.99
74615;BME280;63121;51.458;-0.110;2023-03-19T10:42:34;101528.69;;;13.82;46.67
74615;BME280;63121;51.458;-0.110;2023-03-19T10:45:51;101528.53;;;13.98;45.97
74615;BME280;63121;51.458;-0.110;2023-03-19T10:47:59;101528.63;;;14.57;45.30
74615;BME280;63121;51.458;-0.110;2023-03-19T10:50:37;101528.75;;;13.79;46.70
74615;BME280;63121;51.458;-0.110;2023-03-19T10:53:25;101530.09;;;14.11;45.86
74615;BME280;63121;51.458;-0.110;2023-03-19T10:55:59;101532.44;;;13.58;46.57
74615;BME280;63121;51.458;-0.110;2023-03-19T10:58:27;101535.19;;;14.17;45.52
74615;BME280;63121;51.458;-0.110;2023-03-19T11:01:07;101541.28;;;13.36;47.72
74615;BME280;63121;51.458;-0.110;2023-03-19T11:03:56;101546.72;;;13.05;48.81
74615;BME280;63121;51.458;-0.110;2023-03-19T11:06:36;101541.66;;;13.86;47.68
74615;BME280;63121;51.458;-0.110;2023-03-19T11:11:42;101538.94;;;13.95;45.72
74615;BME280;63121;51.458;-0.110;2023-03-19T11:14:46;101546.84;;;13.84;46.76
74615;BME280;63121;51.458;-0.110;2023-03-19T11:19:58;101547.16;;;14.29;46.66
74615;BME280;63121;51.458;-0.110;2023-03-19T11:22:30;101547.88;;;14.40;46.62
74615;BME280;63121;51.458;-0.110;2023-03-19T11:25:18;101547.09;;;13.59;48.15
74615;BME280;63121;51.458;-0.110;2023-03-19T11:28:18;101544.25;;;13.84;47.51
74615;BME280;63121;51.458;-0.110;2023-03-19T11:31:19;101553.38;;;14.16;47.37
74615;BME280;63121;51.458;-0.110;2023-03-19T11:36:48;101548.34;;;14.03;46.24
74615;BME280;63121;51.458;-0.110;2023-03-19T11:45:16;101563.59;;;14.93;44.06
74615;BME280;63121;51.458;-0.110;2023-03-19T11:50:56;101558.38;;;14.31;44.45
74615;BME280;63121;51.458;-0.110;2023-03-19T11:56:33;101558.59;;;14.79;44.56
74615;BME280;63121;51.458;-0.110;2023-03-19T11:59:37;101565.81;;;14.60;45.29
74615;BME280;63121;51.458;-0.110;2023-03-19T12:05:16;101570.38;;;14.41;45.76
74615;BME280;63121;51.458;-0.110;2023-03-19T12:08:07;101568.44;;;13.86;46.54
74615;BME280;63121;51.458;-0.110;2023-03-19T12:15:49;101573.75;;;15.07;44.29
74615;BME280;63121;51.458;-0.110;2023-03-19T12:18:42;101569.63;;;14.97;43.87
74615;BME280;63121;51.458;-0.110;2023-03-19T12:26:49;101573.56;;;13.92;45.64
74615;BME280;63121;51.458;-0.110;2023-03-19T12:29:34;101573.66;;;13.85;46.43
74615;BME280;63121;51.458;-0.110;2023-03-19T12:32:15;101575.78;;;14.26;44.87
74615;BME280;63121;51.458;-0.110;2023-03-19T12:37:25;101581.69;;;14.37;44.58
74615;BME280;63121;51.458;-0.110;2023-03-19T12:40:26;101582.28;;;14.61;44.64
74615;BME280;63121;51.458;-0.110;2023-03-19T12:42:59;101591.00;;;14.52;43.97
74615;BME280;63121;51.458;-0.110;2023-03-19T12:48:25;101591.06;;;14.48;44.22
74615;BME280;63121;51.458;-0.110;2023-03-19T12:50:55;101588.19;;;14.72;43.49
74615;BME280;63121;51.458;-0.110;2023-03-19T12:53:30;101582.38;;;15.11;42.38
74615;BME280;63121;51.458;-0.110;2023-03-19T12:56:01;101589.03;;;14.73;43.58
74615;BME280;63121;51.458;-0.110;2023-03-19T12:58:58;101586.66;;;15.16;42.67
74615;BME280;63121;51.458;-0.110;2023-03-19T13:01:26;101583.09;;;15.20;42.85
74615;BME280;63121;51.458;-0.110;2023-03-19T13:03:58;101578.63;;;15.80;41.49
74615;BME280;63121;51.458;-0.110;2023-03-19T13:06:54;101581.47;;;15.13;42.78
74615;BME280;63121;51.458;-0.110;2023-03-19T13:09:29;101583.56;;;15.44;42.60
74615;BME280;63121;51.458;-0.110;2023-03-19T13:12:00;101575.88;;;15.38;42.33
74615;BME280;63121;51.458;-0.110;2023-03-19T13:20:04;101587.19;;;15.37;42.62
74615;BME280;63121;51.458;-0.110;2023-03-19T13:22:35;101585.22;;;14.97;43.04
74615;BME280;63121;51.458;-0.110;2023-03-19T13:25:02;101585.81;;;15.14;42.48
74615;BME280;63121;51.458;-0.110;2023-03-19T13:27:32;101578.75;;;15.21;42.65
74615;BME280;63121;51.458;-0.110;2023-03-19T13:32:40;101564.06;;;16.13;40.61
74615;BME280;63121;51.458;-0.110;2023-03-19T13:43:02;101573.88;;;15.52;41.95
74615;BME280;63121;51.458;-0.110;2023-03-19T13:45:33;101567.31;;;15.33;42.75
74615;BME280;63121;51.458;-0.110;2023-03-19T13:48:23;101571.81;;;15.73;42.07
74615;BME280;63121;51.458;-0.110;2023-03-19T13:51:23;101573.38;;;15.81;41.52
74615;BME280;63121;51.458;-0.110;2023-03-19T13:56:31;101571.75;;;14.69;43.36
74615;BME280;63121;51.458;-0.110;2023-03-19T14:01:40;101572.78;;;15.64;41.64
74615;BME280;63121;51.458;-0.110;2023-03-19T14:06:57;101569.06;;;15.80;41.13
74615;BME280;63121;51.458;-0.110;2023-03-19T14:09:36;101570.88;;;15.25;41.23
74615;BME280;63121;51.458;-0.110;2023-03-19T14:14:47;101573.81;;;15.06;40.27
74615;BME280;63121;51.458;-0.110;2023-03-19T14:17:31;101570.97;;;15.19;39.58